sensor_id;sensor_type;location;lat;lon;timestamp;P1;durP1;ratioP1;P2;durP2;ratioP2
39128;SDS011;24864;49.940;19.770;2023-04-25T00:01:56;6.43;;;5.60;;
39128;SDS011;24864;49.940;19.770;2023-04-25T00:04:24;7.95;;;6.50;;
39128;SDS011;24864;49.940;19.770;2023-04-25T00:06:54;11.10;;;9.95;;
39128;SDS011;24864;49.940;19.770;2023-04-25T00:09:22;12.02;;;10.52;;
39128;SDS011;24864;49.940;19.770;2023-04-25T00:11:50;15.35;;;12.30;;
39128;SDS011;24864;49.940;19.770;2023-04-25T00:14:18;15.85;;;12.25;;
39128;SDS011;24864;49.940;19.770;2023-04-25T00:16:48;23.02;;;14.70;;
39128;SDS011;24864;49.940;19.770;2023-04-25T00:19:19;19.08;;;14.48;;
39128;SDS011;24864;49.940;19.770;2023-04-25T00:21:47;21.02;;;15.13;;
39128;SDS011;24864;49.940;19.770;2023-04-25T00:24:16;22.05;;;14.98;;
39128;SDS011;24864;49.940;19.770;2023-04-25T00:26:44;17.88;;;14.73;;
39128;SDS011;24864;49.940;19.770;2023-04-25T00:29:13;21.92;;;16.23;;
39128;SDS011;24864;49.940;19.770;2023-04-25T00:31:41;17.38;;;13.57;;
39128;SDS011;24864;49.940;19.770;2023-04-25T00:34:10;18.23;;;12.80;;
39128;SDS011;24864;49.940;19.770;2023-04-25T00:36:39;15.98;;;12.68;;
39128;SDS011;24864;49.940;19.770;2023-04-25T00:39:08;18.35;;;13.07;;
39128;SDS011;24864;49.940;19.770;2023-04-25T00:41:36;22.40;;;14.48;;
39128;SDS011;24864;49.940;19.770;2023-04-25T00:44:04;18.75;;;14.93;;
39128;SDS011;24864;49.940;19.770;2023-04-25T00:46:34;24.52;;;16.73;;
39128;SDS011;24864;49.940;19.770;2023-04-25T00:49:03;25.95;;;17.90;;
39128;SDS011;24864;49.940;19.770;2023-04-25T00:51:31;25.48;;;17.48;;
39128;SDS011;24864;49.940;19.770;2023-04-25T00:54:02;25.70;;;18.08;;
39128;SDS011;24864;49.940;19.770;2023-04-25T00:56:30;24.50;;;17.30;;
39128;SDS011;24864;49.940;19.770;2023-04-25T00:58:58;25.70;;;19.02;;
39128;SDS011;24864;49.940;19.770;2023-04-25T01:04:16;30.67;;;19.88;;
39128;SDS011;24864;49.940;19.770;2023-04-25T01:06:44;26.25;;;18.50;;
39128;SDS011;24864;49.940;19.770;2023-04-25T01:09:14;26.63;;;18.80;;
39128;SDS011;24864;49.940;19.770;2023-04-25T01:11:43;26.10;;;18.70;;
39128;SDS011;24864;49.940;19.770;2023-04-25T01:14:11;23.98;;;18.02;;
39128;SDS011;24864;49.940;19.770;2023-04-25T01:16:39;29.67;;;18.90;;
39128;SDS011;24864;49.940;19.770;2023-04-25T01:19:08;26.75;;;19.35;;
39128;SDS011;24864;49.940;19.770;2023-04-25T01:21:40;25.83;;;19.98;;
39128;SDS011;24864;49.940;19.770;2023-04-25T01:24:08;27.25;;;20.60;;
39128;SDS011;24864;49.940;19.770;2023-04-25T01:26:36;25.67;;;17.23;;
39128;SDS011;24864;49.940;19.770;2023-04-25T01:29:06;23.17;;;17.15;;
39128;SDS011;24864;49.940;19.770;2023-04-25T01:31:35;26.98;;;18.30;;
39128;SDS011;24864;49.940;19.770;2023-04-25T01:34:04;27.23;;;19.42;;
39128;SDS011;24864;49.940;19.770;2023-04-25T01:36:32;28.52;;;19.38;;
39128;SDS011;24864;49.940;19.770;2023-04-25T01:39:02;25.17;;;18.83;;
39128;SDS011;24864;49.940;19.770;2023-04-25T01:41:31;26.95;;;20.02;;
39128;SDS011;24864;49.940;19.770;2023-04-25T01:44:01;28.13;;;19.75;;
39128;SDS011;24864;49.940;19.770;2023-04-25T01:46:29;27.70;;;18.83;;
39128;SDS011;24864;49.940;19.770;2023-04-25T01:48:58;28.58;;;18.75;;
39128;SDS011;24864;49.940;19.770;2023-04-25T01:51:26;20.98;;;15.93;;
39128;SDS011;24864;49.940;19.770;2023-04-25T01:53:54;24.10;;;18.42;;
39128;SDS011;24864;49.940;19.770;2023-04-25T01:56:29;23.13;;;17.30;;
39128;SDS011;24864;49.940;19.770;2023-04-25T01:58:58;28.08;;;18.63;;
39128;SDS011;24864;49.940;19.770;2023-04-25T02:01:26;24.27;;;18.15;;
39128;SDS011;24864;49.940;19.770;2023-04-25T02:03:55;23.58;;;17.65;;
39128;SDS011;24864;49.940;19.770;2023-04-25T02:06:24;23.58;;;18.15;;
39128;SDS011;24864;49.940;19.770;2023-04-25T02:08:52;29.17;;;19.65;;
39128;SDS011;24864;49.940;19.770;2023-04-25T02:11:20;24.50;;;19.05;;
39128;SDS011;24864;49.940;19.770;2023-04-25T02:13:50;24.92;;;18.98;;
39128;SDS011;24864;49.940;19.770;2023-04-25T02:16:18;28.90;;;20.63;;
39128;SDS011;24864;49.940;19.770;2023-04-25T02:18:47;34.35;;;21.92;;
39128;SDS011;24864;49.940;19.770;2023-04-25T02:21:15;29.58;;;21.70;;
39128;SDS011;24864;49.940;19.770;2023-04-25T02:23:44;37.85;;;23.55;;
39128;SDS011;24864;49.940;19.770;2023-04-25T02:26:15;37.17;;;25.17;;
39128;SDS011;24864;49.940;19.770;2023-04-25T02:28:43;42.92;;;26.73;;
39128;SDS011;24864;49.940;19.770;2023-04-25T02:31:13;48.42;;;28.58;;
39128;SDS011;24864;49.940;19.770;2023-04-25T02:33:41;51.97;;;30.45;;
39128;SDS011;24864;49.940;19.770;2023-04-25T02:36:10;42.45;;;25.67;;
39128;SDS011;24864;49.940;19.770;2023-04-25T02:38:38;41.53;;;24.83;;
39128;SDS011;24864;49.940;19.770;2023-04-25T02:41:07;39.72;;;25.48;;
39128;SDS011;24864;49.940;19.770;2023-04-25T02:43:35;42.70;;;27.05;;
39128;SDS011;24864;49.940;19.770;2023-04-25T02:46:03;41.80;;;26.05;;
39128;SDS011;24864;49.940;19.770;2023-04-25T02:48:33;39.85;;;26.35;;
39128;SDS011;24864;49.940;19.770;2023-04-25T02:51:01;45.50;;;28.95;;
39128;SDS011;24864;49.940;19.770;2023-04-25T02:53:30;43.85;;;28.23;;
39128;SDS011;24864;49.940;19.770;2023-04-25T02:55:58;48.40;;;29.35;;
39128;SDS011;24864;49.940;19.770;2023-04-25T02:58:26;47.80;;;29.98;;
39128;SDS011;24864;49.940;19.770;2023-04-25T03:00:55;52.67;;;30.45;;
39128;SDS011;24864;49.940;19.770;2023-04-25T03:03:23;42.72;;;28.15;;
39128;SDS011;24864;49.940;19.770;2023-04-25T03:05:53;48.47;;;28.38;;
39128;SDS011;24864;49.940;19.770;2023-04-25T03:08:21;38.70;;;23.65;;
39128;SDS011;24864;49.940;19.770;2023-04-25T03:10:51;45.92;;;27.67;;
39128;SDS011;24864;49.940;19.770;2023-04-25T03:13:21;42.38;;;26.20;;
39128;SDS011;24864;49.940;19.770;2023-04-25T03:15:50;39.45;;;26.58;;
39128;SDS011;24864;49.940;19.770;2023-04-25T03:18:18;40.03;;;25.33;;
39128;SDS011;24864;49.940;19.770;2023-04-25T03:20:46;35.10;;;24.08;;
39128;SDS011;24864;49.940;19.770;2023-04-25T03:23:16;38.25;;;24.92;;
39128;SDS011;24864;49.940;19.770;2023-04-25T03:25:45;39.33;;;25.83;;
39128;SDS011;24864;49.940;19.770;2023-04-25T03:28:13;40.70;;;24.92;;
39128;SDS011;24864;49.940;19.770;2023-04-25T03:30:41;44.67;;;26.60;;
39128;SDS011;24864;49.940;19.770;2023-04-25T03:33:10;38.78;;;24.58;;
39128;SDS011;24864;49.940;19.770;2023-04-25T03:35:38;41.80;;;25.05;;
39128;SDS011;24864;49.940;19.770;2023-04-25T03:38:06;40.50;;;26.30;;
39128;SDS011;24864;49.940;19.770;2023-04-25T03:40:36;39.60;;;26.98;;
39128;SDS011;24864;49.940;19.770;2023-04-25T03:43:04;43.67;;;28.15;;
39128;SDS011;24864;49.940;19.770;2023-04-25T03:45:33;39.88;;;28.60;;
39128;SDS011;24864;49.940;19.770;2023-04-25T03:48:02;42.00;;;27.98;;
39128;SDS011;24864;49.940;19.770;2023-04-25T03:50:30;38.15;;;26.70;;
39128;SDS011;24864;49.940;19.770;2023-04-25T03:53:01;28.73;;;18.88;;
39128;SDS011;24864;49.940;19.770;2023-04-25T03:55:29;30.50;;;21.08;;
39128;SDS011;24864;49.940;19.770;2023-04-25T03:57:59;31.17;;;22.10;;
39128;SDS011;24864;49.940;19.770;2023-04-25T04:00:28;27.27;;;20.48;;
39128;SDS011;24864;49.940;19.770;2023-04-25T04:02:56;24.13;;;19.60;;
39128;SDS011;24864;49.940;19.770;2023-04-25T04:05:25;23.42;;;18.50;;
39128;SDS011;24864;49.940;19.770;2023-04-25T04:07:53;27.10;;;19.75;;
39128;SDS011;24864;49.940;19.770;2023-04-25T04:10:22;29.88;;;20.60;;
39128;SDS011;24864;49.940;19.770;2023-04-25T04:12:50;26.35;;;19.73;;
39128;SDS011;24864;49.940;19.770;2023-04-25T04:15:20;26.05;;;20.65;;
39128;SDS011;24864;49.940;19.770;2023-04-25T04:17:48;21.67;;;17.38;;
39128;SDS011;24864;49.940;19.770;2023-04-25T04:20:17;30.60;;;21.70;;
39128;SDS011;24864;49.940;19.770;2023-04-25T04:22:45;37.05;;;21.55;;
39128;SDS011;24864;49.940;19.770;2023-04-25T04:25:14;24.10;;;17.90;;
39128;SDS011;24864;49.940;19.770;2023-04-25T04:27:42;29.33;;;20.20;;
39128;SDS011;24864;49.940;19.770;2023-04-25T04:30:12;27.02;;;20.15;;
39128;SDS011;24864;49.940;19.770;2023-04-25T04:32:42;28.33;;;18.95;;
39128;SDS011;24864;49.940;19.770;2023-04-25T04:35:11;27.02;;;20.50;;
39128;SDS011;24864;49.940;19.770;2023-04-25T04:37:40;22.90;;;16.05;;
39128;SDS011;24864;49.940;19.770;2023-04-25T04:40:08;27.42;;;18.73;;
39128;SDS011;24864;49.940;19.770;2023-04-25T04:42:37;23.50;;;18.35;;
39128;SDS011;24864;49.940;19.770;2023-04-25T04:45:06;21.13;;;14.65;;
39128;SDS011;24864;49.940;19.770;2023-04-25T04:47:34;22.92;;;16.75;;
39128;SDS011;24864;49.940;19.770;2023-04-25T04:50:05;21.85;;;15.07;;
39128;SDS011;24864;49.940;19.770;2023-04-25T04:52:35;19.60;;;17.00;;
39128;SDS011;24864;49.940;19.770;2023-04-25T04:55:04;21.00;;;16.35;;
39128;SDS011;24864;49.940;19.770;2023-04-25T04:57:34;23.27;;;16.85;;
39128;SDS011;24864;49.940;19.770;2023-04-25T05:00:03;18.48;;;15.30;;
39128;SDS011;24864;49.940;19.770;2023-04-25T05:02:33;25.80;;;17.38;;
39128;SDS011;24864;49.940;19.770;2023-04-25T05:05:02;18.60;;;16.00;;
39128;SDS011;24864;49.940;19.770;2023-04-25T05:07:32;20.88;;;15.20;;
39128;SDS011;24864;49.940;19.770;2023-04-25T05:10:00;20.90;;;14.10;;
39128;SDS011;24864;49.940;19.770;2023-04-25T05:12:28;23.35;;;14.82;;
39128;SDS011;24864;49.940;19.770;2023-04-25T05:14:57;20.15;;;16.83;;
39128;SDS011;24864;49.940;19.770;2023-04-25T05:17:25;26.45;;;16.35;;
39128;SDS011;24864;49.940;19.770;2023-04-25T05:19:53;22.83;;;15.80;;
39128;SDS011;24864;49.940;19.770;2023-04-25T05:22:22;20.48;;;15.68;;
39128;SDS011;24864;49.940;19.770;2023-04-25T05:24:52;24.63;;;16.83;;
39128;SDS011;24864;49.940;19.770;2023-04-25T05:27:21;23.42;;;16.30;;
39128;SDS011;24864;49.940;19.770;2023-04-25T05:29:50;23.55;;;16.55;;
39128;SDS011;24864;49.940;19.770;2023-04-25T05:32:19;21.63;;;15.65;;
39128;SDS011;24864;49.940;19.770;2023-04-25T05:34:47;20.00;;;14.45;;
39128;SDS011;24864;49.940;19.770;2023-04-25T05:37:16;23.30;;;16.42;;
39128;SDS011;24864;49.940;19.770;2023-04-25T05:39:45;23.42;;;16.10;;
39128;SDS011;24864;49.940;19.770;2023-04-25T05:42:14;20.58;;;16.00;;
39128;SDS011;24864;49.940;19.770;2023-04-25T05:44:43;21.90;;;17.10;;
39128;SDS011;24864;49.940;19.770;2023-04-25T05:47:11;19.80;;;15.55;;
39128;SDS011;24864;49.940;19.770;2023-04-25T05:49:40;23.38;;;17.55;;
39128;SDS011;24864;49.940;19.770;2023-04-25T05:52:08;22.88;;;16.02;;
39128;SDS011;24864;49.940;19.770;2023-04-25T05:54:36;16.00;;;14.35;;
39128;SDS011;24864;49.940;19.770;2023-04-25T05:57:04;20.77;;;15.07;;
39128;SDS011;24864;49.940;19.770;2023-04-25T05:59:34;21.33;;;15.00;;
39128;SDS011;24864;49.940;19.770;2023-04-25T06:02:02;19.63;;;15.30;;
39128;SDS011;24864;49.940;19.770;2023-04-25T06:04:31;20.48;;;13.40;;
39128;SDS011;24864;49.940;19.770;2023-04-25T06:07:00;15.35;;;12.90;;
39128;SDS011;24864;49.940;19.770;2023-04-25T06:09:28;20.52;;;15.73;;
39128;SDS011;24864;49.940;19.770;2023-04-25T06:11:56;16.25;;;14.52;;
39128;SDS011;24864;49.940;19.770;2023-04-25T06:14:25;16.83;;;13.82;;
39128;SDS011;24864;49.940;19.770;2023-04-25T06:16:56;20.88;;;15.27;;
39128;SDS011;24864;49.940;19.770;2023-04-25T06:19:25;17.08;;;14.10;;
39128;SDS011;24864;49.940;19.770;2023-04-25T06:21:53;20.27;;;15.52;;
39128;SDS011;24864;49.940;19.770;2023-04-25T06:24:21;20.10;;;14.88;;
39128;SDS011;24864;49.940;19.770;2023-04-25T06:26:50;39.53;;;24.83;;
39128;SDS011;24864;49.940;19.770;2023-04-25T06:29:19;21.00;;;15.50;;
39128;SDS011;24864;49.940;19.770;2023-04-25T06:31:47;14.60;;;12.70;;
39128;SDS011;24864;49.940;19.770;2023-04-25T06:34:18;22.25;;;16.58;;
39128;SDS011;24864;49.940;19.770;2023-04-25T06:36:47;18.83;;;14.95;;
39128;SDS011;24864;49.940;19.770;2023-04-25T06:39:15;18.17;;;14.45;;
39128;SDS011;24864;49.940;19.770;2023-04-25T06:41:43;16.70;;;14.68;;
39128;SDS011;24864;49.940;19.770;2023-04-25T06:44:12;23.20;;;16.17;;
39128;SDS011;24864;49.940;19.770;2023-04-25T06:46:40;18.40;;;14.45;;
39128;SDS011;24864;49.940;19.770;2023-04-25T06:49:09;22.88;;;15.13;;
39128;SDS011;24864;49.940;19.770;2023-04-25T06:51:38;23.02;;;16.02;;
39128;SDS011;24864;49.940;19.770;2023-04-25T06:54:06;22.70;;;15.18;;
39128;SDS011;24864;49.940;19.770;2023-04-25T06:56:35;21.85;;;16.08;;
39128;SDS011;24864;49.940;19.770;2023-04-25T06:59:03;21.20;;;15.68;;
39128;SDS011;24864;49.940;19.770;2023-04-25T07:01:31;18.77;;;14.13;;
39128;SDS011;24864;49.940;19.770;2023-04-25T07:04:00;21.63;;;12.82;;
39128;SDS011;24864;49.940;19.770;2023-04-25T07:06:28;17.75;;;14.00;;
39128;SDS011;24864;49.940;19.770;2023-04-25T07:08:59;16.70;;;12.07;;
39128;SDS011;24864;49.940;19.770;2023-04-25T07:11:27;21.42;;;15.18;;
39128;SDS011;24864;49.940;19.770;2023-04-25T07:13:55;17.17;;;12.88;;
39128;SDS011;24864;49.940;19.770;2023-04-25T07:16:23;20.27;;;14.63;;
39128;SDS011;24864;49.940;19.770;2023-04-25T07:18:52;16.25;;;13.02;;
39128;SDS011;24864;49.940;19.770;2023-04-25T07:21:20;17.95;;;12.45;;
39128;SDS011;24864;49.940;19.770;2023-04-25T07:23:48;16.42;;;11.20;;
39128;SDS011;24864;49.940;19.770;2023-04-25T07:26:18;12.15;;;10.73;;
39128;SDS011;24864;49.940;19.770;2023-04-25T07:28:47;18.00;;;12.45;;
39128;SDS011;24864;49.940;19.770;2023-04-25T07:31:17;15.93;;;11.43;;
39128;SDS011;24864;49.940;19.770;2023-04-25T07:33:46;17.50;;;13.23;;
39128;SDS011;24864;49.940;19.770;2023-04-25T07:36:14;20.70;;;13.77;;
39128;SDS011;24864;49.940;19.770;2023-04-25T07:38:43;18.40;;;12.90;;
39128;SDS011;24864;49.940;19.770;2023-04-25T07:41:11;15.63;;;12.30;;
39128;SDS011;24864;49.940;19.770;2023-04-25T07:43:41;18.05;;;14.02;;
39128;SDS011;24864;49.940;19.770;2023-04-25T07:46:09;21.98;;;14.77;;
39128;SDS011;24864;49.940;19.770;2023-04-25T07:48:38;13.98;;;11.88;;
39128;SDS011;24864;49.940;19.770;2023-04-25T07:51:06;22.33;;;12.35;;
39128;SDS011;24864;49.940;19.770;2023-04-25T07:53:34;18.10;;;12.43;;
39128;SDS011;24864;49.940;19.770;2023-04-25T07:56:04;15.50;;;11.52;;
39128;SDS011;24864;49.940;19.770;2023-04-25T07:58:33;14.35;;;12.75;;
39128;SDS011;24864;49.940;19.770;2023-04-25T08:01:03;13.80;;;12.38;;
39128;SDS011;24864;49.940;19.770;2023-04-25T08:03:31;14.90;;;12.57;;
39128;SDS011;24864;49.940;19.770;2023-04-25T08:06:00;18.67;;;13.93;;
39128;SDS011;24864;49.940;19.770;2023-04-25T08:08:33;18.83;;;13.98;;
39128;SDS011;24864;49.940;19.770;2023-04-25T08:11:01;18.60;;;14.02;;
39128;SDS011;24864;49.940;19.770;2023-04-25T08:13:30;21.30;;;14.07;;
39128;SDS011;24864;49.940;19.770;2023-04-25T08:15:59;16.65;;;14.32;;
39128;SDS011;24864;49.940;19.770;2023-04-25T08:18:28;19.02;;;15.32;;
39128;SDS011;24864;49.940;19.770;2023-04-25T08:20:57;21.70;;;15.10;;
39128;SDS011;24864;49.940;19.770;2023-04-25T08:23:26;20.52;;;14.88;;
39128;SDS011;24864;49.940;19.770;2023-04-25T08:25:54;17.58;;;15.40;;
39128;SDS011;24864;49.940;19.770;2023-04-25T08:28:22;20.02;;;15.23;;
39128;SDS011;24864;49.940;19.770;2023-04-25T08:30:51;20.30;;;15.23;;
39128;SDS011;24864;49.940;19.770;2023-04-25T08:33:19;20.05;;;14.70;;
39128;SDS011;24864;49.940;19.770;2023-04-25T08:35:49;18.73;;;14.20;;
39128;SDS011;24864;49.940;19.770;2023-04-25T08:38:18;19.23;;;14.77;;
39128;SDS011;24864;49.940;19.770;2023-04-25T08:40:48;14.48;;;12.93;;
39128;SDS011;24864;49.940;19.770;2023-04-25T08:43:18;16.00;;;12.43;;
39128;SDS011;24864;49.940;19.770;2023-04-25T08:45:47;15.75;;;11.63;;
39128;SDS011;24864;49.940;19.770;2023-04-25T08:48:16;13.20;;;11.38;;
39128;SDS011;24864;49.940;19.770;2023-04-25T08:50:45;12.05;;;10.77;;
39128;SDS011;24864;49.940;19.770;2023-04-25T08:53:19;15.20;;;11.63;;
39128;SDS011;24864;49.940;19.770;2023-04-25T08:55:49;14.07;;;6.82;;
39128;SDS011;24864;49.940;19.770;2023-04-25T08:58:18;12.65;;;8.38;;
39128;SDS011;24864;49.940;19.770;2023-04-25T09:00:46;4.55;;;3.65;;
39128;SDS011;24864;49.940;19.770;2023-04-25T09:03:15;7.13;;;4.38;;
39128;SDS011;24864;49.940;19.770;2023-04-25T09:05:44;7.07;;;4.53;;
39128;SDS011;24864;49.940;19.770;2023-04-25T09:08:12;7.63;;;4.30;;
39128;SDS011;24864;49.940;19.770;2023-04-25T09:10:42;6.18;;;4.40;;
39128;SDS011;24864;49.940;19.770;2023-04-25T09:13:11;8.07;;;4.38;;
39128;SDS011;24864;49.940;19.770;2023-04-25T09:15:48;3.43;;;3.13;;
39128;SDS011;24864;49.940;19.770;2023-04-25T09:18:22;4.22;;;3.63;;
39128;SDS011;24864;49.940;19.770;2023-04-25T09:20:56;3.80;;;3.13;;
39128;SDS011;24864;49.940;19.770;2023-04-25T09:23:38;5.22;;;3.47;;
39128;SDS011;24864;49.940;19.770;2023-04-25T09:26:09;6.05;;;3.42;;
39128;SDS011;24864;49.940;19.770;2023-04-25T09:28:37;5.65;;;3.40;;
39128;SDS011;24864;49.940;19.770;2023-04-25T09:31:06;4.65;;;3.28;;
39128;SDS011;24864;49.940;19.770;2023-04-25T09:33:37;4.68;;;3.60;;
39128;SDS011;24864;49.940;19.770;2023-04-25T09:36:07;4.88;;;3.25;;
39128;SDS011;24864;49.940;19.770;2023-04-25T09:38:40;7.15;;;4.10;;
39128;SDS011;24864;49.940;19.770;2023-04-25T09:41:10;6.47;;;4.60;;
39128;SDS011;24864;49.940;19.770;2023-04-25T09:43:39;6.30;;;4.30;;
39128;SDS011;24864;49.940;19.770;2023-04-25T09:46:08;6.13;;;4.53;;
39128;SDS011;24864;49.940;19.770;2023-04-25T09:48:37;6.35;;;4.85;;
39128;SDS011;24864;49.940;19.770;2023-04-25T09:51:07;7.72;;;4.55;;
39128;SDS011;24864;49.940;19.770;2023-04-25T09:53:36;7.57;;;5.13;;
39128;SDS011;24864;49.940;19.770;2023-04-25T09:56:06;5.38;;;4.55;;
39128;SDS011;24864;49.940;19.770;2023-04-25T09:58:37;6.18;;;3.88;;
39128;SDS011;24864;49.940;19.770;2023-04-25T10:01:07;6.45;;;4.63;;
39128;SDS011;24864;49.940;19.770;2023-04-25T10:03:36;7.40;;;4.10;;
39128;SDS011;24864;49.940;19.770;2023-04-25T10:06:08;6.85;;;4.10;;
39128;SDS011;24864;49.940;19.770;2023-04-25T10:08:37;7.93;;;3.90;;
39128;SDS011;24864;49.940;19.770;2023-04-25T10:11:07;5.20;;;3.72;;
39128;SDS011;24864;49.940;19.770;2023-04-25T10:13:37;6.63;;;4.53;;
39128;SDS011;24864;49.940;19.770;2023-04-25T10:16:06;4.75;;;4.25;;
39128;SDS011;24864;49.940;19.770;2023-04-25T10:18:34;7.13;;;4.90;;
39128;SDS011;24864;49.940;19.770;2023-04-25T10:21:04;7.10;;;5.07;;
39128;SDS011;24864;49.940;19.770;2023-04-25T10:23:32;9.38;;;4.75;;
39128;SDS011;24864;49.940;19.770;2023-04-25T10:26:02;8.32;;;4.78;;
39128;SDS011;24864;49.940;19.770;2023-04-25T10:28:30;6.20;;;4.32;;
39128;SDS011;24864;49.940;19.770;2023-04-25T10:31:27;7.78;;;5.20;;
39128;SDS011;24864;49.940;19.770;2023-04-25T10:33:59;14.30;;;5.10;;
39128;SDS011;24864;49.940;19.770;2023-04-25T10:36:31;6.50;;;4.47;;
39128;SDS011;24864;49.940;19.770;2023-04-25T10:39:02;6.00;;;5.40;;
39128;SDS011;24864;49.940;19.770;2023-04-25T10:41:45;9.57;;;5.10;;
39128;SDS011;24864;49.940;19.770;2023-04-25T10:44:16;10.35;;;5.10;;
39128;SDS011;24864;49.940;19.770;2023-04-25T10:46:44;8.00;;;5.07;;
39128;SDS011;24864;49.940;19.770;2023-04-25T10:49:28;8.05;;;5.57;;
39128;SDS011;24864;49.940;19.770;2023-04-25T10:52:17;9.43;;;5.43;;
39128;SDS011;24864;49.940;19.770;2023-04-25T10:54:46;9.13;;;6.05;;
39128;SDS011;24864;49.940;19.770;2023-04-25T10:57:26;7.30;;;5.00;;
39128;SDS011;24864;49.940;19.770;2023-04-25T10:59:59;7.53;;;5.70;;
39128;SDS011;24864;49.940;19.770;2023-04-25T11:02:31;9.35;;;5.65;;
39128;SDS011;24864;49.940;19.770;2023-04-25T11:05:01;6.50;;;5.15;;
39128;SDS011;24864;49.940;19.770;2023-04-25T11:07:33;7.95;;;4.45;;
39128;SDS011;24864;49.940;19.770;2023-04-25T11:10:05;5.82;;;4.43;;
39128;SDS011;24864;49.940;19.770;2023-04-25T11:12:34;5.38;;;4.30;;
39128;SDS011;24864;49.940;19.770;2023-04-25T11:15:05;7.10;;;4.47;;
39128;SDS011;24864;49.940;19.770;2023-04-25T11:17:35;10.98;;;5.20;;
39128;SDS011;24864;49.940;19.770;2023-04-25T11:20:04;5.82;;;4.63;;
39128;SDS011;24864;49.940;19.770;2023-04-25T11:22:38;7.70;;;4.40;;
39128;SDS011;24864;49.940;19.770;2023-04-25T11:25:09;5.50;;;3.47;;
39128;SDS011;24864;49.940;19.770;2023-04-25T11:27:38;4.10;;;3.70;;
39128;SDS011;24864;49.940;19.770;2023-04-25T11:30:13;8.95;;;3.60;;
39128;SDS011;24864;49.940;19.770;2023-04-25T11:32:43;6.68;;;4.55;;
39128;SDS011;24864;49.940;19.770;2023-04-25T11:35:12;5.90;;;4.00;;
39128;SDS011;24864;49.940;19.770;2023-04-25T11:37:41;7.82;;;4.55;;
39128;SDS011;24864;49.940;19.770;2023-04-25T11:40:11;7.53;;;4.60;;
39128;SDS011;24864;49.940;19.770;2023-04-25T11:42:43;12.02;;;4.70;;
39128;SDS011;24864;49.940;19.770;2023-04-25T11:47:42;7.70;;;3.92;;
39128;SDS011;24864;49.940;19.770;2023-04-25T11:50:10;4.38;;;3.67;;
39128;SDS011;24864;49.940;19.770;2023-04-25T11:52:41;8.13;;;5.00;;
39128;SDS011;24864;49.940;19.770;2023-04-25T11:55:12;5.35;;;4.85;;
39128;SDS011;24864;49.940;19.770;2023-04-25T11:57:42;8.13;;;5.15;;
39128;SDS011;24864;49.940;19.770;2023-04-25T12:00:14;8.70;;;4.72;;
39128;SDS011;24864;49.940;19.770;2023-04-25T12:02:45;8.13;;;6.60;;
39128;SDS011;24864;49.940;19.770;2023-04-25T12:05:15;6.88;;;5.47;;
39128;SDS011;24864;49.940;19.770;2023-04-25T12:07:46;9.57;;;6.97;;
39128;SDS011;24864;49.940;19.770;2023-04-25T12:10:16;10.63;;;6.70;;
39128;SDS011;24864;49.940;19.770;2023-04-25T12:12:46;10.73;;;8.55;;
39128;SDS011;24864;49.940;19.770;2023-04-25T12:15:17;11.57;;;7.20;;
39128;SDS011;24864;49.940;19.770;2023-04-25T12:17:47;7.40;;;5.82;;
39128;SDS011;24864;49.940;19.770;2023-04-25T12:20:16;9.73;;;6.22;;
39128;SDS011;24864;49.940;19.770;2023-04-25T12:22:48;9.48;;;7.03;;
39128;SDS011;24864;49.940;19.770;2023-04-25T12:28:11;12.38;;;6.95;;
39128;SDS011;24864;49.940;19.770;2023-04-25T12:30:55;11.88;;;8.50;;
39128;SDS011;24864;49.940;19.770;2023-04-25T12:33:25;9.70;;;6.97;;
39128;SDS011;24864;49.940;19.770;2023-04-25T12:35:54;9.38;;;6.88;;
39128;SDS011;24864;49.940;19.770;2023-04-25T12:38:24;9.18;;;6.85;;
39128;SDS011;24864;49.940;19.770;2023-04-25T12:40:53;10.88;;;6.95;;
39128;SDS011;24864;49.940;19.770;2023-04-25T12:43:22;6.93;;;6.22;;
39128;SDS011;24864;49.940;19.770;2023-04-25T12:45:51;14.25;;;6.82;;
39128;SDS011;24864;49.940;19.770;2023-04-25T12:48:22;7.85;;;6.35;;
39128;SDS011;24864;49.940;19.770;2023-04-25T12:50:51;7.32;;;6.32;;
39128;SDS011;24864;49.940;19.770;2023-04-25T12:53:20;11.65;;;7.53;;
39128;SDS011;24864;49.940;19.770;2023-04-25T12:55:50;12.32;;;9.85;;
39128;SDS011;24864;49.940;19.770;2023-04-25T12:58:19;12.13;;;7.22;;
39128;SDS011;24864;49.940;19.770;2023-04-25T13:00:47;11.52;;;7.53;;
39128;SDS011;24864;49.940;19.770;2023-04-25T13:03:16;8.10;;;5.30;;
39128;SDS011;24864;49.940;19.770;2023-04-25T13:05:46;7.82;;;5.80;;
39128;SDS011;24864;49.940;19.770;2023-04-25T13:08:15;7.57;;;5.97;;
39128;SDS011;24864;49.940;19.770;2023-04-25T13:10:43;8.00;;;5.57;;
39128;SDS011;24864;49.940;19.770;2023-04-25T13:13:12;8.60;;;7.35;;
39128;SDS011;24864;49.940;19.770;2023-04-25T13:15:40;6.65;;;4.70;;
39128;SDS011;24864;49.940;19.770;2023-04-25T13:18:08;8.43;;;5.90;;
39128;SDS011;24864;49.940;19.770;2023-04-25T13:20:37;10.15;;;6.93;;
39128;SDS011;24864;49.940;19.770;2023-04-25T13:23:07;12.32;;;8.20;;
39128;SDS011;24864;49.940;19.770;2023-04-25T13:25:36;6.70;;;5.55;;
39128;SDS011;24864;49.940;19.770;2023-04-25T13:28:04;8.82;;;5.60;;
39128;SDS011;24864;49.940;19.770;2023-04-25T13:30:32;6.28;;;5.22;;
39128;SDS011;24864;49.940;19.770;2023-04-25T13:33:01;8.18;;;5.22;;
39128;SDS011;24864;49.940;19.770;2023-04-25T13:35:30;9.70;;;6.30;;
39128;SDS011;24864;49.940;19.770;2023-04-25T13:37:59;10.90;;;5.60;;
39128;SDS011;24864;49.940;19.770;2023-04-25T13:40:29;10.13;;;6.13;;
39128;SDS011;24864;49.940;19.770;2023-04-25T13:42:58;8.07;;;5.22;;
39128;SDS011;24864;49.940;19.770;2023-04-25T13:45:26;5.45;;;4.63;;
39128;SDS011;24864;49.940;19.770;2023-04-25T13:47:58;7.20;;;4.90;;
39128;SDS011;24864;49.940;19.770;2023-04-25T13:50:27;7.05;;;5.10;;
39128;SDS011;24864;49.940;19.770;2023-04-25T13:52:55;8.35;;;5.97;;
39128;SDS011;24864;49.940;19.770;2023-04-25T13:55:23;6.00;;;5.40;;
39128;SDS011;24864;49.940;19.770;2023-04-25T13:57:53;11.43;;;6.40;;
39128;SDS011;24864;49.940;19.770;2023-04-25T14:00:21;10.00;;;7.88;;
39128;SDS011;24864;49.940;19.770;2023-04-25T14:02:50;11.30;;;7.85;;
39128;SDS011;24864;49.940;19.770;2023-04-25T14:05:18;10.27;;;8.73;;
39128;SDS011;24864;49.940;19.770;2023-04-25T14:07:47;16.00;;;10.55;;
39128;SDS011;24864;49.940;19.770;2023-04-25T14:10:15;16.48;;;12.02;;
39128;SDS011;24864;49.940;19.770;2023-04-25T14:12:44;12.35;;;9.85;;
39128;SDS011;24864;49.940;19.770;2023-04-25T14:15:13;16.92;;;9.77;;
39128;SDS011;24864;49.940;19.770;2023-04-25T14:17:42;11.27;;;9.65;;
39128;SDS011;24864;49.940;19.770;2023-04-25T14:20:12;12.85;;;10.20;;
39128;SDS011;24864;49.940;19.770;2023-04-25T14:22:40;12.35;;;8.07;;
39128;SDS011;24864;49.940;19.770;2023-04-25T14:25:10;11.05;;;6.80;;
39128;SDS011;24864;49.940;19.770;2023-04-25T14:27:38;11.82;;;8.32;;
39128;SDS011;24864;49.940;19.770;2023-04-25T14:30:07;11.68;;;7.53;;
39128;SDS011;24864;49.940;19.770;2023-04-25T14:32:39;10.37;;;6.17;;
39128;SDS011;24864;49.940;19.770;2023-04-25T14:35:08;11.18;;;6.57;;
39128;SDS011;24864;49.940;19.770;2023-04-25T14:37:36;9.23;;;5.97;;
39128;SDS011;24864;49.940;19.770;2023-04-25T14:40:07;8.20;;;7.28;;